sensor_id;sensor_type;location;lat;lon;timestamp;P1;durP1;ratioP1;P2;durP2;ratioP2
13847;SDS011;6994;49.752;6.094;2023-08-06T00:01:02;2.83;;;1.60;;
13847;SDS011;6994;49.752;6.094;2023-08-06T00:03:29;5.30;;;1.85;;
13847;SDS011;6994;49.752;6.094;2023-08-06T00:05:56;1.92;;;1.73;;
13847;SDS011;6994;49.752;6.094;2023-08-06T00:08:23;3.37;;;2.08;;
13847;SDS011;6994;49.752;6.094;2023-08-06T00:10:50;6.40;;;1.87;;
13847;SDS011;6994;49.752;6.094;2023-08-06T00:13:18;2.80;;;1.85;;
13847;SDS011;6994;49.752;6.094;2023-08-06T00:15:45;4.15;;;1.67;;
13847;SDS011;6994;49.752;6.094;2023-08-06T00:18:12;3.05;;;1.70;;
13847;SDS011;6994;49.752;6.094;2023-08-06T00:20:39;5.35;;;1.80;;
13847;SDS011;6994;49.752;6.094;2023-08-06T00:23:07;3.80;;;1.45;;
13847;SDS011;6994;49.752;6.094;2023-08-06T00:25:34;2.05;;;1.20;;
13847;SDS011;6994;49.752;6.094;2023-08-06T00:28:01;1.30;;;0.95;;
13847;SDS011;6994;49.752;6.094;2023-08-06T00:30:28;2.42;;;1.15;;
13847;SDS011;6994;49.752;6.094;2023-08-06T00:32:55;2.30;;;1.00;;
13847;SDS011;6994;49.752;6.094;2023-08-06T00:35:23;2.35;;;1.20;;
13847;SDS011;6994;49.752;6.094;2023-08-06T00:37:51;3.37;;;1.08;;
13847;SDS011;6994;49.752;6.094;2023-08-06T00:40:19;5.25;;;1.30;;
13847;SDS011;6994;49.752;6.094;2023-08-06T00:42:45;2.05;;;1.23;;
13847;SDS011;6994;49.752;6.094;2023-08-06T00:45:12;0.82;;;0.70;;
13847;SDS011;6994;49.752;6.094;2023-08-06T00:47:39;1.70;;;1.02;;
13847;SDS011;6994;49.752;6.094;2023-08-06T00:50:07;6.00;;;0.90;;
13847;SDS011;6994;49.752;6.094;2023-08-06T00:52:34;1.20;;;0.90;;
13847;SDS011;6994;49.752;6.094;2023-08-06T00:55:01;2.72;;;1.27;;
13847;SDS011;6994;49.752;6.094;2023-08-06T00:57:28;1.12;;;0.68;;
13847;SDS011;6994;49.752;6.094;2023-08-06T00:59:56;1.77;;;0.85;;
13847;SDS011;6994;49.752;6.094;2023-08-06T01:02:23;1.48;;;0.40;;
13847;SDS011;6994;49.752;6.094;2023-08-06T01:04:50;1.08;;;0.40;;
13847;SDS011;6994;49.752;6.094;2023-08-06T01:07:39;0.30;;;0.20;;
13847;SDS011;6994;49.752;6.094;2023-08-06T01:10:10;1.05;;;0.20;;
13847;SDS011;6994;49.752;6.094;2023-08-06T01:15:20;0.55;;;0.20;;
13847;SDS011;6994;49.752;6.094;2023-08-06T01:17:47;1.55;;;0.20;;
13847;SDS011;6994;49.752;6.094;2023-08-06T01:20:15;0.35;;;0.20;;
13847;SDS011;6994;49.752;6.094;2023-08-06T01:22:43;0.10;;;0.10;;
13847;SDS011;6994;49.752;6.094;2023-08-06T01:25:11;0.47;;;0.37;;
13847;SDS011;6994;49.752;6.094;2023-08-06T01:27:43;2.00;;;0.30;;
13847;SDS011;6994;49.752;6.094;2023-08-06T01:30:11;0.25;;;0.25;;
13847;SDS011;6994;49.752;6.094;2023-08-06T01:32:36;2.08;;;0.22;;
13847;SDS011;6994;49.752;6.094;2023-08-06T01:35:04;1.23;;;0.40;;
13847;SDS011;6994;49.752;6.094;2023-08-06T01:37:31;0.10;;;0.10;;
13847;SDS011;6994;49.752;6.094;2023-08-06T01:39:59;0.45;;;0.10;;
13847;SDS011;6994;49.752;6.094;2023-08-06T01:42:27;2.05;;;0.20;;
13847;SDS011;6994;49.752;6.094;2023-08-06T01:44:55;0.25;;;0.20;;
13847;SDS011;6994;49.752;6.094;2023-08-06T01:47:22;0.30;;;0.30;;
13847;SDS011;6994;49.752;6.094;2023-08-06T01:49:49;0.57;;;0.50;;
13847;SDS011;6994;49.752;6.094;2023-08-06T01:52:16;0.40;;;0.37;;
13847;SDS011;6994;49.752;6.094;2023-08-06T01:54:44;1.08;;;0.40;;
13847;SDS011;6994;49.752;6.094;2023-08-06T01:57:11;0.98;;;0.65;;
13847;SDS011;6994;49.752;6.094;2023-08-06T01:59:38;2.20;;;0.50;;
13847;SDS011;6994;49.752;6.094;2023-08-06T02:02:05;1.52;;;0.25;;
13847;SDS011;6994;49.752;6.094;2023-08-06T02:04:32;0.20;;;0.20;;
13847;SDS011;6994;49.752;6.094;2023-08-06T02:07:00;1.10;;;0.30;;
13847;SDS011;6994;49.752;6.094;2023-08-06T02:09:27;0.30;;;0.30;;
13847;SDS011;6994;49.752;6.094;2023-08-06T02:11:54;0.40;;;0.40;;
13847;SDS011;6994;49.752;6.094;2023-08-06T02:14:21;0.85;;;0.50;;
13847;SDS011;6994;49.752;6.094;2023-08-06T02:16:48;3.35;;;0.77;;
13847;SDS011;6994;49.752;6.094;2023-08-06T02:19:16;0.62;;;0.40;;
13847;SDS011;6994;49.752;6.094;2023-08-06T02:21:43;1.92;;;0.50;;
13847;SDS011;6994;49.752;6.094;2023-08-06T02:24:11;0.43;;;0.40;;
13847;SDS011;6994;49.752;6.094;2023-08-06T02:26:39;0.90;;;0.37;;
13847;SDS011;6994;49.752;6.094;2023-08-06T02:29:06;0.55;;;0.20;;
13847;SDS011;6994;49.752;6.094;2023-08-06T02:31:33;0.37;;;0.30;;
13847;SDS011;6994;49.752;6.094;2023-08-06T02:34:01;1.20;;;0.35;;
13847;SDS011;6994;49.752;6.094;2023-08-06T02:36:28;5.35;;;0.50;;
13847;SDS011;6994;49.752;6.094;2023-08-06T02:38:55;1.30;;;0.75;;
13847;SDS011;6994;49.752;6.094;2023-08-06T02:41:22;2.20;;;0.50;;
13847;SDS011;6994;49.752;6.094;2023-08-06T02:43:49;2.00;;;0.50;;
13847;SDS011;6994;49.752;6.094;2023-08-06T02:46:17;1.33;;;0.50;;
13847;SDS011;6994;49.752;6.094;2023-08-06T02:48:45;1.25;;;0.37;;
13847;SDS011;6994;49.752;6.094;2023-08-06T02:51:12;0.40;;;0.40;;
13847;SDS011;6994;49.752;6.094;2023-08-06T02:53:40;1.77;;;0.43;;
13847;SDS011;6994;49.752;6.094;2023-08-06T02:56:07;0.82;;;0.50;;
13847;SDS011;6994;49.752;6.094;2023-08-06T02:58:34;1.05;;;0.60;;
13847;SDS011;6994;49.752;6.094;2023-08-06T03:01:05;2.00;;;0.70;;
13847;SDS011;6994;49.752;6.094;2023-08-06T03:03:32;1.77;;;0.80;;
13847;SDS011;6994;49.752;6.094;2023-08-06T03:06:00;0.62;;;0.40;;
13847;SDS011;6994;49.752;6.094;2023-08-06T03:08:28;0.68;;;0.45;;
13847;SDS011;6994;49.752;6.094;2023-08-06T03:10:55;0.57;;;0.45;;
13847;SDS011;6994;49.752;6.094;2023-08-06T03:13:22;2.50;;;0.52;;
13847;SDS011;6994;49.752;6.094;2023-08-06T03:15:53;1.27;;;0.50;;
13847;SDS011;6994;49.752;6.094;2023-08-06T03:18:22;2.37;;;0.70;;
13847;SDS011;6994;49.752;6.094;2023-08-06T03:20:50;2.05;;;0.60;;
13847;SDS011;6994;49.752;6.094;2023-08-06T03:23:17;1.10;;;0.40;;
13847;SDS011;6994;49.752;6.094;2023-08-06T03:25:45;1.15;;;0.90;;
13847;SDS011;6994;49.752;6.094;2023-08-06T03:28:13;2.37;;;0.95;;
13847;SDS011;6994;49.752;6.094;2023-08-06T03:30:41;5.60;;;0.75;;
13847;SDS011;6994;49.752;6.094;2023-08-06T03:33:09;1.85;;;0.80;;
13847;SDS011;6994;49.752;6.094;2023-08-06T03:35:36;1.90;;;1.17;;
13847;SDS011;6994;49.752;6.094;2023-08-06T03:38:03;2.37;;;0.77;;
13847;SDS011;6994;49.752;6.094;2023-08-06T03:40:30;2.90;;;1.27;;
13847;SDS011;6994;49.752;6.094;2023-08-06T03:42:58;2.92;;;1.02;;
13847;SDS011;6994;49.752;6.094;2023-08-06T03:45:25;2.05;;;1.27;;
13847;SDS011;6994;49.752;6.094;2023-08-06T03:47:52;1.77;;;1.00;;
13847;SDS011;6994;49.752;6.094;2023-08-06T03:50:19;1.45;;;0.90;;
13847;SDS011;6994;49.752;6.094;2023-08-06T03:52:47;4.32;;;0.90;;
13847;SDS011;6994;49.752;6.094;2023-08-06T03:55:14;1.35;;;0.60;;
13847;SDS011;6994;49.752;6.094;2023-08-06T03:57:42;1.45;;;0.62;;
13847;SDS011;6994;49.752;6.094;2023-08-06T04:00:09;1.23;;;0.80;;
13847;SDS011;6994;49.752;6.094;2023-08-06T04:02:36;0.90;;;0.65;;
13847;SDS011;6994;49.752;6.094;2023-08-06T04:05:03;3.37;;;0.90;;
13847;SDS011;6994;49.752;6.094;2023-08-06T04:07:30;1.85;;;0.70;;
13847;SDS011;6994;49.752;6.094;2023-08-06T04:09:58;0.95;;;0.60;;
13847;SDS011;6994;49.752;6.094;2023-08-06T04:12:25;1.08;;;0.62;;
13847;SDS011;6994;49.752;6.094;2023-08-06T04:14:52;0.95;;;0.77;;
13847;SDS011;6994;49.752;6.094;2023-08-06T04:17:19;2.87;;;0.80;;
13847;SDS011;6994;49.752;6.094;2023-08-06T04:19:47;1.15;;;0.77;;
13847;SDS011;6994;49.752;6.094;2023-08-06T04:22:14;1.75;;;0.60;;
13847;SDS011;6994;49.752;6.094;2023-08-06T04:24:42;0.70;;;0.50;;
13847;SDS011;6994;49.752;6.094;2023-08-06T04:27:11;0.60;;;0.50;;
13847;SDS011;6994;49.752;6.094;2023-08-06T04:29:38;0.40;;;0.40;;
13847;SDS011;6994;49.752;6.094;2023-08-06T04:32:05;0.60;;;0.60;;
13847;SDS011;6994;49.752;6.094;2023-08-06T04:34:32;0.90;;;0.68;;
13847;SDS011;6994;49.752;6.094;2023-08-06T04:36:59;1.85;;;0.70;;
13847;SDS011;6994;49.752;6.094;2023-08-06T04:39:26;2.60;;;0.75;;
13847;SDS011;6994;49.752;6.094;2023-08-06T04:41:54;0.90;;;0.70;;
13847;SDS011;6994;49.752;6.094;2023-08-06T04:44:21;0.93;;;0.52;;
13847;SDS011;6994;49.752;6.094;2023-08-06T04:46:48;1.67;;;1.00;;
13847;SDS011;6994;49.752;6.094;2023-08-06T04:49:15;3.15;;;0.95;;
13847;SDS011;6994;49.752;6.094;2023-08-06T04:51:42;0.60;;;0.60;;
13847;SDS011;6994;49.752;6.094;2023-08-06T04:54:10;2.12;;;0.88;;
13847;SDS011;6994;49.752;6.094;2023-08-06T04:56:37;0.70;;;0.70;;
13847;SDS011;6994;49.752;6.094;2023-08-06T04:59:05;1.35;;;0.80;;
13847;SDS011;6994;49.752;6.094;2023-08-06T05:01:33;1.92;;;0.75;;
13847;SDS011;6994;49.752;6.094;2023-08-06T05:04:01;3.25;;;1.00;;
13847;SDS011;6994;49.752;6.094;2023-08-06T05:06:28;2.17;;;0.88;;
13847;SDS011;6994;49.752;6.094;2023-08-06T05:08:55;0.68;;;0.68;;
13847;SDS011;6994;49.752;6.094;2023-08-06T05:11:22;3.40;;;1.05;;
13847;SDS011;6994;49.752;6.094;2023-08-06T05:13:50;3.03;;;0.80;;
13847;SDS011;6994;49.752;6.094;2023-08-06T05:16:17;4.07;;;0.88;;
13847;SDS011;6994;49.752;6.094;2023-08-06T05:18:44;0.93;;;0.60;;
13847;SDS011;6994;49.752;6.094;2023-08-06T05:21:11;1.85;;;0.70;;
13847;SDS011;6994;49.752;6.094;2023-08-06T05:23:38;0.73;;;0.60;;
13847;SDS011;6994;49.752;6.094;2023-08-06T05:26:06;0.52;;;0.52;;
13847;SDS011;6994;49.752;6.094;2023-08-06T05:28:34;0.70;;;0.60;;
13847;SDS011;6994;49.752;6.094;2023-08-06T05:31:04;0.52;;;0.50;;
13847;SDS011;6994;49.752;6.094;2023-08-06T05:33:32;2.40;;;0.60;;
13847;SDS011;6994;49.752;6.094;2023-08-06T05:36:00;1.75;;;0.43;;
13847;SDS011;6994;49.752;6.094;2023-08-06T05:38:27;2.33;;;0.62;;
13847;SDS011;6994;49.752;6.094;2023-08-06T05:40:54;2.08;;;0.80;;
13847;SDS011;6994;49.752;6.094;2023-08-06T05:43:22;3.58;;;0.90;;
13847;SDS011;6994;49.752;6.094;2023-08-06T05:45:49;0.52;;;0.52;;
13847;SDS011;6994;49.752;6.094;2023-08-06T05:48:16;0.73;;;0.70;;
13847;SDS011;6994;49.752;6.094;2023-08-06T05:50:43;0.62;;;0.62;;
13847;SDS011;6994;49.752;6.094;2023-08-06T05:53:10;0.77;;;0.68;;
13847;SDS011;6994;49.752;6.094;2023-08-06T05:55:39;0.70;;;0.50;;
13847;SDS011;6994;49.752;6.094;2023-08-06T05:58:05;0.52;;;0.52;;
13847;SDS011;6994;49.752;6.094;2023-08-06T06:00:33;0.50;;;0.50;;
13847;SDS011;6994;49.752;6.094;2023-08-06T06:03:00;0.52;;;0.52;;
13847;SDS011;6994;49.752;6.094;2023-08-06T06:05:28;0.90;;;0.60;;
13847;SDS011;6994;49.752;6.094;2023-08-06T06:07:56;0.25;;;0.25;;
13847;SDS011;6994;49.752;6.094;2023-08-06T06:10:24;1.95;;;0.40;;
13847;SDS011;6994;49.752;6.094;2023-08-06T06:12:52;0.30;;;0.30;;
13847;SDS011;6994;49.752;6.094;2023-08-06T06:15:20;0.32;;;0.32;;
13847;SDS011;6994;49.752;6.094;2023-08-06T06:17:47;0.70;;;0.70;;
13847;SDS011;6994;49.752;6.094;2023-08-06T06:20:14;1.50;;;0.57;;
13847;SDS011;6994;49.752;6.094;2023-08-06T06:22:41;0.43;;;0.40;;
13847;SDS011;6994;49.752;6.094;2023-08-06T06:25:08;0.25;;;0.25;;
13847;SDS011;6994;49.752;6.094;2023-08-06T06:27:36;0.40;;;0.40;;
13847;SDS011;6994;49.752;6.094;2023-08-06T06:30:03;0.55;;;0.40;;
13847;SDS011;6994;49.752;6.094;2023-08-06T06:32:30;0.30;;;0.30;;
13847;SDS011;6994;49.752;6.094;2023-08-06T06:34:58;0.20;;;0.20;;
13847;SDS011;6994;49.752;6.094;2023-08-06T06:37:26;0.70;;;0.20;;
13847;SDS011;6994;49.752;6.094;2023-08-06T06:39:53;0.30;;;0.30;;
13847;SDS011;6994;49.752;6.094;2023-08-06T06:42:20;0.82;;;0.37;;
13847;SDS011;6994;49.752;6.094;2023-08-06T06:44:48;0.28;;;0.28;;
13847;SDS011;6994;49.752;6.094;2023-08-06T06:47:15;0.45;;;0.45;;
13847;SDS011;6994;49.752;6.094;2023-08-06T06:49:42;1.15;;;0.80;;
13847;SDS011;6994;49.752;6.094;2023-08-06T06:52:09;0.30;;;0.30;;
13847;SDS011;6994;49.752;6.094;2023-08-06T06:54:36;1.42;;;0.60;;
13847;SDS011;6994;49.752;6.094;2023-08-06T06:57:04;0.22;;;0.22;;
13847;SDS011;6994;49.752;6.094;2023-08-06T06:59:31;0.70;;;0.50;;
13847;SDS011;6994;49.752;6.094;2023-08-06T07:01:58;0.40;;;0.40;;
13847;SDS011;6994;49.752;6.094;2023-08-06T07:04:25;1.98;;;0.70;;
13847;SDS011;6994;49.752;6.094;2023-08-06T07:06:53;0.30;;;0.30;;
13847;SDS011;6994;49.752;6.094;2023-08-06T07:09:20;0.40;;;0.30;;
13847;SDS011;6994;49.752;6.094;2023-08-06T07:11:47;0.43;;;0.30;;
13847;SDS011;6994;49.752;6.094;2023-08-06T07:14:15;0.30;;;0.30;;
13847;SDS011;6994;49.752;6.094;2023-08-06T07:16:42;0.40;;;0.40;;
13847;SDS011;6994;49.752;6.094;2023-08-06T07:19:09;0.15;;;0.15;;
13847;SDS011;6994;49.752;6.094;2023-08-06T07:21:37;0.45;;;0.45;;
13847;SDS011;6994;49.752;6.094;2023-08-06T07:24:05;1.08;;;0.30;;
13847;SDS011;6994;49.752;6.094;2023-08-06T07:26:33;0.50;;;0.20;;
13847;SDS011;6994;49.752;6.094;2023-08-06T07:29:00;0.35;;;0.35;;
13847;SDS011;6994;49.752;6.094;2023-08-06T07:31:27;0.20;;;0.20;;
13847;SDS011;6994;49.752;6.094;2023-08-06T07:33:54;0.35;;;0.30;;
13847;SDS011;6994;49.752;6.094;2023-08-06T07:36:21;0.57;;;0.35;;
13847;SDS011;6994;49.752;6.094;2023-08-06T07:38:49;0.22;;;0.22;;
13847;SDS011;6994;49.752;6.094;2023-08-06T07:41:16;0.65;;;0.30;;
13847;SDS011;6994;49.752;6.094;2023-08-06T07:43:43;0.45;;;0.30;;
13847;SDS011;6994;49.752;6.094;2023-08-06T07:46:10;0.20;;;0.20;;
13847;SDS011;6994;49.752;6.094;2023-08-06T07:48:37;0.20;;;0.20;;
13847;SDS011;6994;49.752;6.094;2023-08-06T07:51:05;0.50;;;0.50;;
13847;SDS011;6994;49.752;6.094;2023-08-06T07:53:33;2.62;;;0.60;;
13847;SDS011;6994;49.752;6.094;2023-08-06T07:56:00;0.47;;;0.47;;
13847;SDS011;6994;49.752;6.094;2023-08-06T07:58:27;0.43;;;0.43;;
13847;SDS011;6994;49.752;6.094;2023-08-06T08:00:54;0.50;;;0.50;;
13847;SDS011;6994;49.752;6.094;2023-08-06T08:03:21;0.30;;;0.30;;
13847;SDS011;6994;49.752;6.094;2023-08-06T08:05:49;0.65;;;0.50;;
13847;SDS011;6994;49.752;6.094;2023-08-06T08:08:16;0.43;;;0.40;;
13847;SDS011;6994;49.752;6.094;2023-08-06T08:10:43;0.20;;;0.20;;
13847;SDS011;6994;49.752;6.094;2023-08-06T08:13:10;0.30;;;0.30;;
13847;SDS011;6994;49.752;6.094;2023-08-06T08:15:37;0.68;;;0.28;;
13847;SDS011;6994;49.752;6.094;2023-08-06T08:18:05;0.35;;;0.22;;
13847;SDS011;6994;49.752;6.094;2023-08-06T08:20:33;0.28;;;0.20;;
13847;SDS011;6994;49.752;6.094;2023-08-06T08:23:00;0.35;;;0.35;;
13847;SDS011;6994;49.752;6.094;2023-08-06T08:25:27;0.40;;;0.40;;
13847;SDS011;6994;49.752;6.094;2023-08-06T08:27:54;0.90;;;0.47;;
13847;SDS011;6994;49.752;6.094;2023-08-06T08:30:21;0.32;;;0.30;;
13847;SDS011;6994;49.752;6.094;2023-08-06T08:32:49;0.55;;;0.30;;
13847;SDS011;6994;49.752;6.094;2023-08-06T08:35:16;0.70;;;0.40;;
13847;SDS011;6994;49.752;6.094;2023-08-06T08:37:43;1.75;;;0.32;;
13847;SDS011;6994;49.752;6.094;2023-08-06T08:40:10;1.30;;;0.55;;
13847;SDS011;6994;49.752;6.094;2023-08-06T08:42:37;0.62;;;0.37;;
13847;SDS011;6994;49.752;6.094;2023-08-06T08:45:06;0.52;;;0.28;;
13847;SDS011;6994;49.752;6.094;2023-08-06T08:47:32;0.85;;;0.65;;
13847;SDS011;6994;49.752;6.094;2023-08-06T08:49:59;0.60;;;0.60;;
13847;SDS011;6994;49.752;6.094;2023-08-06T08:52:26;0.88;;;0.70;;
13847;SDS011;6994;49.752;6.094;2023-08-06T08:54:54;1.33;;;0.75;;
13847;SDS011;6994;49.752;6.094;2023-08-06T08:57:21;1.48;;;0.70;;
13847;SDS011;6994;49.752;6.094;2023-08-06T08:59:48;1.15;;;0.60;;
13847;SDS011;6994;49.752;6.094;2023-08-06T09:02:15;3.28;;;0.70;;
13847;SDS011;6994;49.752;6.094;2023-08-06T09:04:42;1.87;;;1.62;;
13847;SDS011;6994;49.752;6.094;2023-08-06T09:07:10;1.27;;;0.88;;
13847;SDS011;6994;49.752;6.094;2023-08-06T09:09:38;2.40;;;0.80;;
13847;SDS011;6994;49.752;6.094;2023-08-06T09:12:08;1.48;;;0.95;;
13847;SDS011;6994;49.752;6.094;2023-08-06T09:14:32;2.60;;;1.30;;
13847;SDS011;6994;49.752;6.094;2023-08-06T09:16:59;2.65;;;1.20;;
13847;SDS011;6994;49.752;6.094;2023-08-06T09:19:26;2.87;;;0.73;;
13847;SDS011;6994;49.752;6.094;2023-08-06T09:21:55;2.10;;;1.20;;
13847;SDS011;6994;49.752;6.094;2023-08-06T09:24:21;1.92;;;1.23;;
13847;SDS011;6994;49.752;6.094;2023-08-06T09:26:48;1.60;;;0.93;;
13847;SDS011;6994;49.752;6.094;2023-08-06T09:29:15;1.70;;;1.17;;
13847;SDS011;6994;49.752;6.094;2023-08-06T09:31:46;1.35;;;0.90;;
13847;SDS011;6994;49.752;6.094;2023-08-06T09:34:15;3.42;;;1.40;;
13847;SDS011;6994;49.752;6.094;2023-08-06T09:36:42;2.78;;;1.65;;
13847;SDS011;6994;49.752;6.094;2023-08-06T09:39:12;1.12;;;0.80;;
13847;SDS011;6994;49.752;6.094;2023-08-06T09:41:39;1.30;;;0.80;;
13847;SDS011;6994;49.752;6.094;2023-08-06T09:44:14;1.05;;;0.73;;
13847;SDS011;6994;49.752;6.094;2023-08-06T09:46:36;1.95;;;0.75;;
13847;SDS011;6994;49.752;6.094;2023-08-06T09:49:03;1.42;;;0.80;;
13847;SDS011;6994;49.752;6.094;2023-08-06T09:51:30;0.82;;;0.70;;
13847;SDS011;6994;49.752;6.094;2023-08-06T09:53:58;1.12;;;0.50;;
13847;SDS011;6994;49.752;6.094;2023-08-06T09:56:25;0.45;;;0.40;;
13847;SDS011;6994;49.752;6.094;2023-08-06T09:58:52;0.40;;;0.40;;
13847;SDS011;6994;49.752;6.094;2023-08-06T10:01:19;0.50;;;0.43;;
13847;SDS011;6994;49.752;6.094;2023-08-06T10:03:47;0.45;;;0.45;;
13847;SDS011;6994;49.752;6.094;2023-08-06T10:06:14;3.40;;;0.40;;
13847;SDS011;6994;49.752;6.094;2023-08-06T10:08:42;0.40;;;0.20;;
13847;SDS011;6994;49.752;6.094;2023-08-06T10:11:09;0.62;;;0.55;;
13847;SDS011;6994;49.752;6.094;2023-08-06T10:13:37;1.25;;;0.50;;
13847;SDS011;6994;49.752;6.094;2023-08-06T10:16:05;1.52;;;0.43;;
13847;SDS011;6994;49.752;6.094;2023-08-06T10:18:32;0.60;;;0.32;;
13847;SDS011;6994;49.752;6.094;2023-08-06T10:20:59;0.88;;;0.30;;
13847;SDS011;6994;49.752;6.094;2023-08-06T10:23:36;0.50;;;0.40;;
13847;SDS011;6994;49.752;6.094;2023-08-06T10:26:02;1.00;;;0.40;;
13847;SDS011;6994;49.752;6.094;2023-08-06T10:28:37;0.30;;;0.30;;
13847;SDS011;6994;49.752;6.094;2023-08-06T10:31:03;0.43;;;0.37;;
13847;SDS011;6994;49.752;6.094;2023-08-06T10:33:40;0.25;;;0.25;;
13847;SDS011;6994;49.752;6.094;2023-08-06T10:36:08;0.50;;;0.40;;
13847;SDS011;6994;49.752;6.094;2023-08-06T10:38:34;1.27;;;0.52;;
13847;SDS011;6994;49.752;6.094;2023-08-06T10:41:02;1.35;;;0.80;;
13847;SDS011;6994;49.752;6.094;2023-08-06T10:43:29;2.92;;;0.88;;
13847;SDS011;6994;49.752;6.094;2023-08-06T10:45:57;1.85;;;0.77;;
13847;SDS011;6994;49.752;6.094;2023-08-06T10:48:30;0.82;;;0.62;;
13847;SDS011;6994;49.752;6.094;2023-08-06T10:50:56;1.58;;;0.60;;
13847;SDS011;6994;49.752;6.094;2023-08-06T10:53:23;2.35;;;0.62;;
13847;SDS011;6994;49.752;6.094;2023-08-06T10:55:51;1.33;;;0.70;;
13847;SDS011;6994;49.752;6.094;2023-08-06T10:58:18;1.30;;;0.60;;
13847;SDS011;6994;49.752;6.094;2023-08-06T11:00:45;1.37;;;0.60;;
13847;SDS011;6994;49.752;6.094;2023-08-06T11:03:12;1.15;;;0.80;;
13847;SDS011;6994;49.752;6.094;2023-08-06T11:05:39;1.15;;;0.80;;
13847;SDS011;6994;49.752;6.094;2023-08-06T11:08:07;0.70;;;0.70;;
13847;SDS011;6994;49.752;6.094;2023-08-06T11:10:34;1.02;;;0.70;;
13847;SDS011;6994;49.752;6.094;2023-08-06T11:13:01;0.65;;;0.60;;
13847;SDS011;6994;49.752;6.094;2023-08-06T11:15:29;0.77;;;0.45;;
13847;SDS011;6994;49.752;6.094;2023-08-06T11:17:56;0.47;;;0.47;;
13847;SDS011;6994;49.752;6.094;2023-08-06T11:20:24;1.80;;;0.52;;
13847;SDS011;6994;49.752;6.094;2023-08-06T11:22:51;1.95;;;0.50;;
13847;SDS011;6994;49.752;6.094;2023-08-06T11:25:20;0.80;;;0.60;;
13847;SDS011;6994;49.752;6.094;2023-08-06T11:27:46;3.20;;;0.60;;
13847;SDS011;6994;49.752;6.094;2023-08-06T11:30:14;0.50;;;0.40;;
13847;SDS011;6994;49.752;6.094;2023-08-06T11:32:47;0.82;;;0.62;;
13847;SDS011;6994;49.752;6.094;2023-08-06T11:35:14;0.30;;;0.30;;
13847;SDS011;6994;49.752;6.094;2023-08-06T11:37:44;1.23;;;0.60;;
13847;SDS011;6994;49.752;6.094;2023-08-06T11:40:12;2.08;;;0.40;;
13847;SDS011;6994;49.752;6.094;2023-08-06T11:42:39;2.12;;;0.40;;
13847;SDS011;6994;49.752;6.094;2023-08-06T11:45:08;1.62;;;0.50;;
13847;SDS011;6994;49.752;6.094;2023-08-06T11:47:37;0.75;;;0.40;;
13847;SDS011;6994;49.752;6.094;2023-08-06T11:50:03;0.73;;;0.37;;
13847;SDS011;6994;49.752;6.094;2023-08-06T11:52:31;2.47;;;0.75;;
13847;SDS011;6994;49.752;6.094;2023-08-06T11:55:04;1.37;;;0.60;;
13847;SDS011;6994;49.752;6.094;2023-08-06T11:57:36;3.37;;;0.62;;
13847;SDS011;6994;49.752;6.094;2023-08-06T12:00:07;1.20;;;0.60;;
13847;SDS011;6994;49.752;6.094;2023-08-06T12:02:34;1.02;;;0.35;;
13847;SDS011;6994;49.752;6.094;2023-08-06T12:05:02;0.40;;;0.40;;
13847;SDS011;6994;49.752;6.094;2023-08-06T12:07:29;0.85;;;0.40;;
13847;SDS011;6994;49.752;6.094;2023-08-06T12:09:58;1.27;;;0.50;;
13847;SDS011;6994;49.752;6.094;2023-08-06T12:12:25;1.27;;;0.37;;
13847;SDS011;6994;49.752;6.094;2023-08-06T12:14:53;0.50;;;0.50;;
13847;SDS011;6994;49.752;6.094;2023-08-06T12:17:20;0.20;;;0.20;;
13847;SDS011;6994;49.752;6.094;2023-08-06T12:19:47;0.80;;;0.37;;
13847;SDS011;6994;49.752;6.094;2023-08-06T12:22:14;0.88;;;0.30;;
13847;SDS011;6994;49.752;6.094;2023-08-06T12:24:42;0.98;;;0.40;;
13847;SDS011;6994;49.752;6.094;2023-08-06T12:27:09;1.12;;;0.65;;
13847;SDS011;6994;49.752;6.094;2023-08-06T12:29:44;0.50;;;0.40;;
13847;SDS011;6994;49.752;6.094;2023-08-06T12:32:10;1.92;;;0.65;;
13847;SDS011;6994;49.752;6.094;2023-08-06T12:34:38;0.52;;;0.40;;
13847;SDS011;6994;49.752;6.094;2023-08-06T12:37:06;0.62;;;0.52;;
13847;SDS011;6994;49.752;6.094;2023-08-06T12:39:36;1.27;;;0.55;;
13847;SDS011;6994;49.752;6.094;2023-08-06T12:42:04;0.77;;;0.60;;
13847;SDS011;6994;49.752;6.094;2023-08-06T12:44:31;1.17;;;0.70;;
13847;SDS011;6994;49.752;6.094;2023-08-06T12:46:58;1.20;;;0.75;;
13847;SDS011;6994;49.752;6.094;2023-08-06T12:49:26;0.57;;;0.57;;
13847;SDS011;6994;49.752;6.094;2023-08-06T12:51:54;0.93;;;0.62;;
13847;SDS011;6994;49.752;6.094;2023-08-06T12:54:22;1.23;;;0.77;;
13847;SDS011;6994;49.752;6.094;2023-08-06T12:56:49;0.62;;;0.50;;
13847;SDS011;6994;49.752;6.094;2023-08-06T12:59:17;0.93;;;0.50;;
13847;SDS011;6994;49.752;6.094;2023-08-06T13:01:45;1.52;;;0.50;;
13847;SDS011;6994;49.752;6.094;2023-08-06T13:04:12;0.90;;;0.50;;
13847;SDS011;6994;49.752;6.094;2023-08-06T13:06:39;0.70;;;0.50;;
13847;SDS011;6994;49.752;6.094;2023-08-06T13:09:06;0.52;;;0.43;;
13847;SDS011;6994;49.752;6.094;2023-08-06T13:11:34;0.50;;;0.50;;
13847;SDS011;6994;49.752;6.094;2023-08-06T13:14:04;0.50;;;0.50;;
13847;SDS011;6994;49.752;6.094;2023-08-06T13:16:30;1.30;;;0.70;;
13847;SDS011;6994;49.752;6.094;2023-08-06T13:18:58;1.60;;;0.75;;
13847;SDS011;6994;49.752;6.094;2023-08-06T13:21:32;1.10;;;0.55;;
13847;SDS011;6994;49.752;6.094;2023-08-06T13:23:54;0.80;;;0.50;;
13847;SDS011;6994;49.752;6.094;2023-08-06T13:26:22;0.57;;;0.32;;
13847;SDS011;6994;49.752;6.094;2023-08-06T13:28:50;0.75;;;0.52;;
13847;SDS011;6994;49.752;6.094;2023-08-06T13:31:17;0.30;;;0.30;;
13847;SDS011;6994;49.752;6.094;2023-08-06T13:33:45;0.45;;;0.30;;
13847;SDS011;6994;49.752;6.094;2023-08-06T13:36:12;0.50;;;0.30;;
13847;SDS011;6994;49.752;6.094;2023-08-06T13:38:39;1.02;;;0.47;;
13847;SDS011;6994;49.752;6.094;2023-08-06T13:41:06;1.10;;;0.30;;
13847;SDS011;6994;49.752;6.094;2023-08-06T13:43:33;0.90;;;0.30;;
13847;SDS011;6994;49.752;6.094;2023-08-06T13:46:01;2.47;;;0.50;;
13847;SDS011;6994;49.752;6.094;2023-08-06T13:48:28;0.62;;;0.50;;
13847;SDS011;6994;49.752;6.094;2023-08-06T13:50:55;2.53;;;0.52;;
13847;SDS011;6994;49.752;6.094;2023-08-06T13:53:22;0.60;;;0.50;;
13847;SDS011;6994;49.752;6.094;2023-08-06T13:55:49;1.33;;;0.70;;
13847;SDS011;6994;49.752;6.094;2023-08-06T13:58:17;0.90;;;0.50;;
13847;SDS011;6994;49.752;6.094;2023-08-06T14:00:45;0.50;;;0.40;;
13847;SDS011;6994;49.752;6.094;2023-08-06T14:03:13;0.40;;;0.40;;
13847;SDS011;6994;49.752;6.094;2023-08-06T14:05:41;1.48;;;0.50;;
13847;SDS011;6994;49.752;6.094;2023-08-06T14:08:09;0.88;;;0.60;;
13847;SDS011;6994;49.752;6.094;2023-08-06T14:10:37;1.37;;;0.50;;
13847;SDS011;6994;49.752;6.094;2023-08-06T14:13:04;1.40;;;0.43;;
13847;SDS011;6994;49.752;6.094;2023-08-06T14:15:32;0.60;;;0.55;;
13847;SDS011;6994;49.752;6.094;2023-08-06T14:17:59;0.68;;;0.40;;
13847;SDS011;6994;49.752;6.094;2023-08-06T14:20:26;2.80;;;0.60;;
13847;SDS011;6994;49.752;6.094;2023-08-06T14:22:53;3.00;;;0.70;;
13847;SDS011;6994;49.752;6.094;2023-08-06T14:25:20;1.27;;;0.68;;
13847;SDS011;6994;49.752;6.094;2023-08-06T14:27:48;3.37;;;0.77;;
13847;SDS011;6994;49.752;6.094;2023-08-06T14:30:15;0.70;;;0.70;;
13847;SDS011;6994;49.752;6.094;2023-08-06T14:32:42;3.47;;;0.60;;
13847;SDS011;6994;49.752;6.094;2023-08-06T14:35:10;0.62;;;0.62;;
13847;SDS011;6994;49.752;6.094;2023-08-06T14:37:37;1.05;;;0.73;;
13847;SDS011;6994;49.752;6.094;2023-08-06T14:40:05;1.70;;;0.82;;
13847;SDS011;6994;49.752;6.094;2023-08-06T14:42:32;1.62;;;0.60;;
13847;SDS011;6994;49.752;6.094;2023-08-06T14:44:59;0.88;;;0.60;;
13847;SDS011;6994;49.752;6.094;2023-08-06T14:47:26;0.80;;;0.50;;
13847;SDS011;6994;49.752;6.094;2023-08-06T14:49:53;2.33;;;0.85;;
13847;SDS011;6994;49.752;6.094;2023-08-06T14:52:21;1.77;;;0.88;;
13847;SDS011;6994;49.752;6.094;2023-08-06T14:54:48;1.30;;;0.70;;
13847;SDS011;6994;49.752;6.094;2023-08-06T14:57:15;1.52;;;0.62;;
13847;SDS011;6994;49.752;6.094;2023-08-06T14:59:42;1.02;;;0.70;;
13847;SDS011;6994;49.752;6.094;2023-08-06T15:02:10;1.10;;;0.50;;
13847;SDS011;6994;49.752;6.094;2023-08-06T15:04:38;1.00;;;0.45;;